sensor_id;sensor_type;location;lat;lon;timestamp;temperature;humidity
52187;DHT22;38161;53.020;6.598;2023-03-01T00:02:02;-0.80;99.90
52187;DHT22;38161;53.020;6.598;2023-03-01T00:04:30;-0.30;99.90
52187;DHT22;38161;53.020;6.598;2023-03-01T00:06:56;-0.80;99.90
52187;DHT22;38161;53.020;6.598;2023-03-01T00:09:22;-0.80;99.90
52187;DHT22;38161;53.020;6.598;2023-03-01T00:11:48;-0.40;99.90
52187;DHT22;38161;53.020;6.598;2023-03-01T00:14:14;-0.60;99.90
52187;DHT22;38161;53.020;6.598;2023-03-01T00:16:42;-0.90;99.90
52187;DHT22;38161;53.020;6.598;2023-03-01T00:19:14;-0.90;99.90
52187;DHT22;38161;53.020;6.598;2023-03-01T00:21:40;-0.90;99.90
52187;DHT22;38161;53.020;6.598;2023-03-01T00:24:07;-1.00;99.90
52187;DHT22;38161;53.020;6.598;2023-03-01T00:26:32;-1.00;99.90
52187;DHT22;38161;53.020;6.598;2023-03-01T00:28:59;-1.00;99.90
52187;DHT22;38161;53.020;6.598;2023-03-01T00:31:27;-1.00;99.90
52187;DHT22;38161;53.020;6.598;2023-03-01T00:33:59;-1.10;99.90
52187;DHT22;38161;53.020;6.598;2023-03-01T00:36:32;-1.10;99.90
52187;DHT22;38161;53.020;6.598;2023-03-01T00:38:58;-1.10;99.90
52187;DHT22;38161;53.020;6.598;2023-03-01T00:41:24;-1.20;99.90
52187;DHT22;38161;53.020;6.598;2023-03-01T00:43:52;-1.10;99.90
52187;DHT22;38161;53.020;6.598;2023-03-01T00:46:20;-1.10;99.90
52187;DHT22;38161;53.020;6.598;2023-03-01T00:48:46;-1.10;99.90
52187;DHT22;38161;53.020;6.598;2023-03-01T00:51:17;-1.10;99.90
52187;DHT22;38161;53.020;6.598;2023-03-01T00:53:43;-1.10;99.90
52187;DHT22;38161;53.020;6.598;2023-03-01T00:56:10;-1.10;99.90
52187;DHT22;38161;53.020;6.598;2023-03-01T00:58:37;-1.10;99.90
52187;DHT22;38161;53.020;6.598;2023-03-01T01:01:27;-1.10;99.90
52187;DHT22;38161;53.020;6.598;2023-03-01T01:04:03;-1.20;99.90
52187;DHT22;38161;53.020;6.598;2023-03-01T01:06:37;-1.20;99.90
52187;DHT22;38161;53.020;6.598;2023-03-01T01:09:06;-1.20;99.90
52187;DHT22;38161;53.020;6.598;2023-03-01T01:11:32;-1.20;99.90
52187;DHT22;38161;53.020;6.598;2023-03-01T01:13:59;-1.30;99.90
52187;DHT22;38161;53.020;6.598;2023-03-01T01:16:26;-1.30;99.90
52187;DHT22;38161;53.020;6.598;2023-03-01T01:18:52;-1.30;99.90
52187;DHT22;38161;53.020;6.598;2023-03-01T01:21:20;-1.30;99.90
52187;DHT22;38161;53.020;6.598;2023-03-01T01:23:47;-1.40;99.90
52187;DHT22;38161;53.020;6.598;2023-03-01T01:26:22;-1.40;99.90
52187;DHT22;38161;53.020;6.598;2023-03-01T01:28:48;-1.40;99.90
52187;DHT22;38161;53.020;6.598;2023-03-01T01:31:14;-1.50;99.90
52187;DHT22;38161;53.020;6.598;2023-03-01T01:33:40;-1.60;99.90
52187;DHT22;38161;53.020;6.598;2023-03-01T01:36:07;-1.60;99.90
52187;DHT22;38161;53.020;6.598;2023-03-01T01:38:33;-1.60;99.90
52187;DHT22;38161;53.020;6.598;2023-03-01T01:40:59;-1.60;99.90
52187;DHT22;38161;53.020;6.598;2023-03-01T01:43:26;-1.60;99.90
52187;DHT22;38161;53.020;6.598;2023-03-01T01:45:59;-1.60;99.90
52187;DHT22;38161;53.020;6.598;2023-03-01T01:48:32;-1.60;99.90
52187;DHT22;38161;53.020;6.598;2023-03-01T01:51:09;-1.60;99.90
52187;DHT22;38161;53.020;6.598;2023-03-01T01:53:35;-1.20;99.90
52187;DHT22;38161;53.020;6.598;2023-03-01T01:56:02;-1.60;99.90
52187;DHT22;38161;53.020;6.598;2023-03-01T01:58:29;-1.70;99.90
52187;DHT22;38161;53.020;6.598;2023-03-01T02:00:56;-1.70;99.90
52187;DHT22;38161;53.020;6.598;2023-03-01T02:03:28;-1.70;99.90
52187;DHT22;38161;53.020;6.598;2023-03-01T02:06:03;-1.90;99.90
52187;DHT22;38161;53.020;6.598;2023-03-01T02:08:34;-1.90;99.90
52187;DHT22;38161;53.020;6.598;2023-03-01T02:11:01;-1.90;99.90
52187;DHT22;38161;53.020;6.598;2023-03-01T02:13:31;-1.90;99.90
52187;DHT22;38161;53.020;6.598;2023-03-01T02:15:58;-2.00;99.90
52187;DHT22;38161;53.020;6.598;2023-03-01T02:18:24;-2.00;99.90
52187;DHT22;38161;53.020;6.598;2023-03-01T02:23:39;-2.10;99.90
52187;DHT22;38161;53.020;6.598;2023-03-01T02:28:35;-2.20;99.90
52187;DHT22;38161;53.020;6.598;2023-03-01T02:31:04;-2.20;99.90
52187;DHT22;38161;53.020;6.598;2023-03-01T02:33:49;-2.20;99.90
52187;DHT22;38161;53.020;6.598;2023-03-01T02:36:29;-2.20;99.90
52187;DHT22;38161;53.020;6.598;2023-03-01T02:38:58;-2.30;99.90
52187;DHT22;38161;53.020;6.598;2023-03-01T02:41:26;-2.30;99.90
52187;DHT22;38161;53.020;6.598;2023-03-01T02:43:53;-2.30;99.90
52187;DHT22;38161;53.020;6.598;2023-03-01T02:46:24;-2.40;99.90
52187;DHT22;38161;53.020;6.598;2023-03-01T02:48:53;-2.40;99.90
52187;DHT22;38161;53.020;6.598;2023-03-01T02:54:36;-2.40;99.90
52187;DHT22;38161;53.020;6.598;2023-03-01T02:56:43;-2.50;99.90
52187;DHT22;38161;53.020;6.598;2023-03-01T02:59:09;-2.50;99.90
52187;DHT22;38161;53.020;6.598;2023-03-01T03:01:35;-2.50;99.90
52187;DHT22;38161;53.020;6.598;2023-03-01T03:04:06;-2.50;99.90
52187;DHT22;38161;53.020;6.598;2023-03-01T03:06:33;-2.50;99.90
52187;DHT22;38161;53.020;6.598;2023-03-01T03:08:59;-2.50;99.90
52187;DHT22;38161;53.020;6.598;2023-03-01T03:11:25;-2.50;99.90
52187;DHT22;38161;53.020;6.598;2023-03-01T03:13:52;-2.50;99.90
52187;DHT22;38161;53.020;6.598;2023-03-01T03:16:18;-2.50;99.90
52187;DHT22;38161;53.020;6.598;2023-03-01T03:18:44;-2.60;99.90
52187;DHT22;38161;53.020;6.598;2023-03-01T03:21:11;-2.50;99.90
52187;DHT22;38161;53.020;6.598;2023-03-01T03:23:37;-2.50;99.90
52187;DHT22;38161;53.020;6.598;2023-03-01T03:26:04;-2.60;99.90
52187;DHT22;38161;53.020;6.598;2023-03-01T03:28:30;-2.60;99.90
52187;DHT22;38161;53.020;6.598;2023-03-01T03:30:56;-2.60;99.90
52187;DHT22;38161;53.020;6.598;2023-03-01T03:33:24;-2.60;99.90
52187;DHT22;38161;53.020;6.598;2023-03-01T03:35:50;-2.70;99.90
52187;DHT22;38161;53.020;6.598;2023-03-01T03:38:18;-2.70;99.90
52187;DHT22;38161;53.020;6.598;2023-03-01T03:41:02;-2.70;99.90
52187;DHT22;38161;53.020;6.598;2023-03-01T03:43:31;-2.70;99.90
52187;DHT22;38161;53.020;6.598;2023-03-01T03:45:57;-2.80;99.90
52187;DHT22;38161;53.020;6.598;2023-03-01T03:48:24;-2.80;99.90
52187;DHT22;38161;53.020;6.598;2023-03-01T03:50:51;-2.90;99.90
52187;DHT22;38161;53.020;6.598;2023-03-01T03:53:17;-2.90;99.90
52187;DHT22;38161;53.020;6.598;2023-03-01T03:55:43;-3.00;99.90
52187;DHT22;38161;53.020;6.598;2023-03-01T03:58:10;-3.00;99.90
52187;DHT22;38161;53.020;6.598;2023-03-01T04:00:40;-3.00;99.90
52187;DHT22;38161;53.020;6.598;2023-03-01T04:03:07;-3.10;99.90
52187;DHT22;38161;53.020;6.598;2023-03-01T04:05:33;-3.00;99.90
52187;DHT22;38161;53.020;6.598;2023-03-01T04:08:00;-3.10;99.90
52187;DHT22;38161;53.020;6.598;2023-03-01T04:10:30;-3.10;99.90
52187;DHT22;38161;53.020;6.598;2023-03-01T04:12:57;-3.10;99.90
52187;DHT22;38161;53.020;6.598;2023-03-01T04:15:24;-3.10;99.90
52187;DHT22;38161;53.020;6.598;2023-03-01T04:17:52;-3.10;99.90
52187;DHT22;38161;53.020;6.598;2023-03-01T04:20:24;-3.10;99.90
52187;DHT22;38161;53.020;6.598;2023-03-01T04:22:59;-3.10;99.90
52187;DHT22;38161;53.020;6.598;2023-03-01T04:25:33;-3.10;99.90
52187;DHT22;38161;53.020;6.598;2023-03-01T04:27:59;-3.10;99.90
52187;DHT22;38161;53.020;6.598;2023-03-01T04:30:25;-3.20;99.90
52187;DHT22;38161;53.020;6.598;2023-03-01T04:32:51;-3.20;99.90
52187;DHT22;38161;53.020;6.598;2023-03-01T04:35:17;-3.10;99.90
52187;DHT22;38161;53.020;6.598;2023-03-01T04:37:42;-3.10;99.90
52187;DHT22;38161;53.020;6.598;2023-03-01T04:40:08;-3.10;99.90
52187;DHT22;38161;53.020;6.598;2023-03-01T04:42:41;-3.20;99.90
52187;DHT22;38161;53.020;6.598;2023-03-01T04:45:08;-3.20;99.90
52187;DHT22;38161;53.020;6.598;2023-03-01T04:47:42;-3.20;99.90
52187;DHT22;38161;53.020;6.598;2023-03-01T04:50:11;-3.20;99.90
52187;DHT22;38161;53.020;6.598;2023-03-01T04:52:37;-3.20;99.90
52187;DHT22;38161;53.020;6.598;2023-03-01T04:55:04;-3.20;99.90
52187;DHT22;38161;53.020;6.598;2023-03-01T04:57:31;-3.30;99.90
52187;DHT22;38161;53.020;6.598;2023-03-01T04:59:57;-3.30;99.90
52187;DHT22;38161;53.020;6.598;2023-03-01T05:02:23;-3.30;99.90
52187;DHT22;38161;53.020;6.598;2023-03-01T05:04:49;-3.30;99.90
52187;DHT22;38161;53.020;6.598;2023-03-01T05:07:15;-3.30;99.90
52187;DHT22;38161;53.020;6.598;2023-03-01T05:09:46;-3.30;99.90
52187;DHT22;38161;53.020;6.598;2023-03-01T05:12:12;-3.40;99.90
52187;DHT22;38161;53.020;6.598;2023-03-01T05:14:38;-3.30;99.90
52187;DHT22;38161;53.020;6.598;2023-03-01T05:17:04;-3.40;99.90
52187;DHT22;38161;53.020;6.598;2023-03-01T05:19:31;-3.40;99.90
52187;DHT22;38161;53.020;6.598;2023-03-01T05:21:57;-3.30;99.90
52187;DHT22;38161;53.020;6.598;2023-03-01T05:24:31;-3.30;99.90
52187;DHT22;38161;53.020;6.598;2023-03-01T05:26:58;-3.30;99.90
52187;DHT22;38161;53.020;6.598;2023-03-01T05:29:25;-3.30;99.90
52187;DHT22;38161;53.020;6.598;2023-03-01T05:31:55;-3.40;99.90
52187;DHT22;38161;53.020;6.598;2023-03-01T05:34:30;-3.40;99.90
52187;DHT22;38161;53.020;6.598;2023-03-01T05:36:56;-3.50;99.90
52187;DHT22;38161;53.020;6.598;2023-03-01T05:39:23;-3.40;99.90
52187;DHT22;38161;53.020;6.598;2023-03-01T05:41:54;-3.40;99.90
52187;DHT22;38161;53.020;6.598;2023-03-01T05:44:20;-3.40;99.90
52187;DHT22;38161;53.020;6.598;2023-03-01T05:46:46;-3.40;99.90
52187;DHT22;38161;53.020;6.598;2023-03-01T05:49:13;-3.40;99.90
52187;DHT22;38161;53.020;6.598;2023-03-01T05:51:39;-3.40;99.90
52187;DHT22;38161;53.020;6.598;2023-03-01T05:54:05;-3.40;99.90
52187;DHT22;38161;53.020;6.598;2023-03-01T05:56:35;-3.40;99.90
52187;DHT22;38161;53.020;6.598;2023-03-01T05:59:02;-3.40;99.90
52187;DHT22;38161;53.020;6.598;2023-03-01T06:01:28;-3.40;99.90
52187;DHT22;38161;53.020;6.598;2023-03-01T06:03:55;-3.40;99.90
52187;DHT22;38161;53.020;6.598;2023-03-01T06:06:22;-3.40;99.90
52187;DHT22;38161;53.020;6.598;2023-03-01T06:08:48;-3.40;99.90
52187;DHT22;38161;53.020;6.598;2023-03-01T06:11:14;-3.10;99.90
52187;DHT22;38161;53.020;6.598;2023-03-01T06:13:42;-3.40;99.90
52187;DHT22;38161;53.020;6.598;2023-03-01T06:16:08;-3.40;99.90
52187;DHT22;38161;53.020;6.598;2023-03-01T06:18:34;-3.40;99.90
52187;DHT22;38161;53.020;6.598;2023-03-01T06:21:00;-3.20;99.90
52187;DHT22;38161;53.020;6.598;2023-03-01T06:23:26;-3.50;99.90
52187;DHT22;38161;53.020;6.598;2023-03-01T06:25:52;-3.50;99.90
52187;DHT22;38161;53.020;6.598;2023-03-01T06:28:18;-3.50;99.90
52187;DHT22;38161;53.020;6.598;2023-03-01T06:30:43;-3.50;99.90
52187;DHT22;38161;53.020;6.598;2023-03-01T06:33:09;-3.50;99.90
52187;DHT22;38161;53.020;6.598;2023-03-01T06:35:35;-3.50;99.90
52187;DHT22;38161;53.020;6.598;2023-03-01T06:38:03;-3.50;99.90
52187;DHT22;38161;53.020;6.598;2023-03-01T06:40:29;-3.50;99.90
52187;DHT22;38161;53.020;6.598;2023-03-01T06:42:57;-3.50;99.90
52187;DHT22;38161;53.020;6.598;2023-03-01T06:45:23;-3.50;99.90
52187;DHT22;38161;53.020;6.598;2023-03-01T06:47:50;-3.50;99.90
52187;DHT22;38161;53.020;6.598;2023-03-01T06:50:17;-3.50;99.90
52187;DHT22;38161;53.020;6.598;2023-03-01T06:52:43;-3.40;99.90
52187;DHT22;38161;53.020;6.598;2023-03-01T06:55:11;-3.10;99.90
52187;DHT22;38161;53.020;6.598;2023-03-01T06:57:37;-3.30;99.90
52187;DHT22;38161;53.020;6.598;2023-03-01T07:00:04;-3.30;99.90
52187;DHT22;38161;53.020;6.598;2023-03-01T07:02:31;-3.30;99.90
52187;DHT22;38161;53.020;6.598;2023-03-01T07:04:57;-3.20;99.90
52187;DHT22;38161;53.020;6.598;2023-03-01T07:07:23;-3.30;99.90
52187;DHT22;38161;53.020;6.598;2023-03-01T07:09:50;-3.20;99.90
52187;DHT22;38161;53.020;6.598;2023-03-01T07:12:16;-3.20;99.90
52187;DHT22;38161;53.020;6.598;2023-03-01T07:14:44;-3.20;99.90
52187;DHT22;38161;53.020;6.598;2023-03-01T07:17:09;-3.10;99.90
52187;DHT22;38161;53.020;6.598;2023-03-01T07:19:35;-3.10;99.90
52187;DHT22;38161;53.020;6.598;2023-03-01T07:22:02;-2.80;99.90
52187;DHT22;38161;53.020;6.598;2023-03-01T07:24:29;-3.10;99.90
52187;DHT22;38161;53.020;6.598;2023-03-01T07:26:55;-3.00;99.90
52187;DHT22;38161;53.020;6.598;2023-03-01T07:29:21;-2.90;99.90
52187;DHT22;38161;53.020;6.598;2023-03-01T07:31:47;-2.90;99.90
52187;DHT22;38161;53.020;6.598;2023-03-01T07:34:12;-2.80;99.90
52187;DHT22;38161;53.020;6.598;2023-03-01T07:36:38;-2.80;99.90
52187;DHT22;38161;53.020;6.598;2023-03-01T07:39:05;-2.70;99.90
52187;DHT22;38161;53.020;6.598;2023-03-01T07:41:30;-2.60;99.90
52187;DHT22;38161;53.020;6.598;2023-03-01T07:43:56;-2.60;99.90
52187;DHT22;38161;53.020;6.598;2023-03-01T07:46:22;-2.50;99.90
52187;DHT22;38161;53.020;6.598;2023-03-01T07:48:48;-2.50;99.90
52187;DHT22;38161;53.020;6.598;2023-03-01T07:51:13;-2.40;99.90
52187;DHT22;38161;53.020;6.598;2023-03-01T07:53:39;-2.30;99.90
52187;DHT22;38161;53.020;6.598;2023-03-01T07:56:08;-2.20;99.90
52187;DHT22;38161;53.020;6.598;2023-03-01T07:58:35;-2.10;99.90
52187;DHT22;38161;53.020;6.598;2023-03-01T08:01:04;-2.10;99.90
52187;DHT22;38161;53.020;6.598;2023-03-01T08:03:30;-2.00;99.90
52187;DHT22;38161;53.020;6.598;2023-03-01T08:06:00;-1.90;99.90
52187;DHT22;38161;53.020;6.598;2023-03-01T08:08:26;-1.80;99.90
52187;DHT22;38161;53.020;6.598;2023-03-01T08:10:51;-1.70;99.90
52187;DHT22;38161;53.020;6.598;2023-03-01T08:13:17;-1.60;99.90
52187;DHT22;38161;53.020;6.598;2023-03-01T08:15:48;-1.60;99.90
52187;DHT22;38161;53.020;6.598;2023-03-01T08:18:16;-1.50;99.90
52187;DHT22;38161;53.020;6.598;2023-03-01T08:20:42;-1.00;99.90
52187;DHT22;38161;53.020;6.598;2023-03-01T08:23:07;-1.30;99.90
52187;DHT22;38161;53.020;6.598;2023-03-01T08:25:33;-1.20;99.90
52187;DHT22;38161;53.020;6.598;2023-03-01T08:27:59;-1.10;99.90
52187;DHT22;38161;53.020;6.598;2023-03-01T08:30:25;-1.10;99.90
52187;DHT22;38161;53.020;6.598;2023-03-01T08:32:51;-0.50;99.90
52187;DHT22;38161;53.020;6.598;2023-03-01T08:35:17;-0.90;99.90
52187;DHT22;38161;53.020;6.598;2023-03-01T08:37:43;-0.80;99.90
52187;DHT22;38161;53.020;6.598;2023-03-01T08:40:09;-0.60;99.90
52187;DHT22;38161;53.020;6.598;2023-03-01T08:42:37;-0.60;99.90
52187;DHT22;38161;53.020;6.598;2023-03-01T08:45:03;-0.50;99.90
52187;DHT22;38161;53.020;6.598;2023-03-01T08:47:29;-0.40;99.90
52187;DHT22;38161;53.020;6.598;2023-03-01T08:49:55;-0.30;99.90
52187;DHT22;38161;53.020;6.598;2023-03-01T08:52:20;-0.20;99.90
52187;DHT22;38161;53.020;6.598;2023-03-01T08:54:49;-0.10;99.90
52187;DHT22;38161;53.020;6.598;2023-03-01T08:57:15;0.00;99.90
52187;DHT22;38161;53.020;6.598;2023-03-01T08:59:41;0.50;99.90
52187;DHT22;38161;53.020;6.598;2023-03-01T09:02:16;0.20;99.90
52187;DHT22;38161;53.020;6.598;2023-03-01T09:04:42;0.30;99.90
52187;DHT22;38161;53.020;6.598;2023-03-01T09:07:08;0.40;99.90
52187;DHT22;38161;53.020;6.598;2023-03-01T09:09:35;0.50;99.90
52187;DHT22;38161;53.020;6.598;2023-03-01T09:12:01;0.60;99.90
52187;DHT22;38161;53.020;6.598;2023-03-01T09:14:27;0.80;99.90
52187;DHT22;38161;53.020;6.598;2023-03-01T09:16:53;0.90;99.90
52187;DHT22;38161;53.020;6.598;2023-03-01T09:19:19;1.20;99.90
52187;DHT22;38161;53.020;6.598;2023-03-01T09:21:45;1.40;99.90
52187;DHT22;38161;53.020;6.598;2023-03-01T09:24:22;1.80;99.90
52187;DHT22;38161;53.020;6.598;2023-03-01T09:26:48;2.10;99.90
52187;DHT22;38161;53.020;6.598;2023-03-01T09:29:15;2.60;99.90
52187;DHT22;38161;53.020;6.598;2023-03-01T09:31:41;3.30;99.90
52187;DHT22;38161;53.020;6.598;2023-03-01T09:34:08;4.20;99.90
52187;DHT22;38161;53.020;6.598;2023-03-01T09:36:34;5.00;99.90
52187;DHT22;38161;53.020;6.598;2023-03-01T09:39:01;5.50;99.90
52187;DHT22;38161;53.020;6.598;2023-03-01T09:47:00;6.30;99.90
52187;DHT22;38161;53.020;6.598;2023-03-01T09:49:40;6.20;99.90
52187;DHT22;38161;53.020;6.598;2023-03-01T09:55:14;6.80;99.90
52187;DHT22;38161;53.020;6.598;2023-03-01T09:57:56;6.80;99.90
52187;DHT22;38161;53.020;6.598;2023-03-01T10:00:43;7.30;99.90
52187;DHT22;38161;53.020;6.598;2023-03-01T10:03:25;7.70;99.90
52187;DHT22;38161;53.020;6.598;2023-03-01T10:09:21;7.90;99.90
52187;DHT22;38161;53.020;6.598;2023-03-01T10:11:35;8.20;99.90
52187;DHT22;38161;53.020;6.598;2023-03-01T10:16:54;8.60;99.90
52187;DHT22;38161;53.020;6.598;2023-03-01T10:19:34;9.20;99.90
52187;DHT22;38161;53.020;6.598;2023-03-01T10:22:28;9.20;99.90
52187;DHT22;38161;53.020;6.598;2023-03-01T10:24:58;9.30;99.90
52187;DHT22;38161;53.020;6.598;2023-03-01T10:27:47;9.40;99.90
52187;DHT22;38161;53.020;6.598;2023-03-01T10:32:59;9.70;99.90
52187;DHT22;38161;53.020;6.598;2023-03-01T10:35:28;9.90;99.90
52187;DHT22;38161;53.020;6.598;2023-03-01T10:38:04;10.20;99.90
52187;DHT22;38161;53.020;6.598;2023-03-01T10:40:30;10.60;99.90
52187;DHT22;38161;53.020;6.598;2023-03-01T10:43:02;10.70;99.90
52187;DHT22;38161;53.020;6.598;2023-03-01T10:45:38;10.90;99.90
52187;DHT22;38161;53.020;6.598;2023-03-01T10:48:23;11.20;99.90
52187;DHT22;38161;53.020;6.598;2023-03-01T10:51:14;11.30;99.90
52187;DHT22;38161;53.020;6.598;2023-03-01T10:53:42;11.30;99.90
52187;DHT22;38161;53.020;6.598;2023-03-01T10:56:14;11.40;99.90
52187;DHT22;38161;53.020;6.598;2023-03-01T10:58:56;11.40;99.90
52187;DHT22;38161;53.020;6.598;2023-03-01T11:06:32;11.50;99.90
52187;DHT22;38161;53.020;6.598;2023-03-01T11:09:01;11.50;99.90
52187;DHT22;38161;53.020;6.598;2023-03-01T11:11:38;11.50;99.90
52187;DHT22;38161;53.020;6.598;2023-03-01T11:14:17;11.40;99.90
52187;DHT22;38161;53.020;6.598;2023-03-01T11:16:48;11.40;99.90
52187;DHT22;38161;53.020;6.598;2023-03-01T11:19:16;11.40;99.90
52187;DHT22;38161;53.020;6.598;2023-03-01T11:21:51;11.40;99.90
52187;DHT22;38161;53.020;6.598;2023-03-01T11:24:19;11.40;99.90
52187;DHT22;38161;53.020;6.598;2023-03-01T11:26:53;11.30;99.90
52187;DHT22;38161;53.020;6.598;2023-03-01T11:29:41;11.10;99.90
52187;DHT22;38161;53.020;6.598;2023-03-01T11:32:11;11.20;99.90
52187;DHT22;38161;53.020;6.598;2023-03-01T11:37:19;11.00;99.90
52187;DHT22;38161;53.020;6.598;2023-03-01T11:40:23;11.20;99.90
52187;DHT22;38161;53.020;6.598;2023-03-01T11:43:05;11.30;99.90
52187;DHT22;38161;53.020;6.598;2023-03-01T11:50:54;11.30;99.90
52187;DHT22;38161;53.020;6.598;2023-03-01T11:56:02;10.90;99.90
52187;DHT22;38161;53.020;6.598;2023-03-01T12:03:55;11.00;99.90
52187;DHT22;38161;53.020;6.598;2023-03-01T12:19:58;11.10;99.90
52187;DHT22;38161;53.020;6.598;2023-03-01T12:22:47;10.90;99.90
52187;DHT22;38161;53.020;6.598;2023-03-01T12:25:25;10.90;99.90
52187;DHT22;38161;53.020;6.598;2023-03-01T12:41:07;10.40;99.90
52187;DHT22;38161;53.020;6.598;2023-03-01T12:47:15;10.40;99.90
52187;DHT22;38161;53.020;6.598;2023-03-01T12:50:04;10.60;99.90
52187;DHT22;38161;53.020;6.598;2023-03-01T12:52:41;10.40;99.90
52187;DHT22;38161;53.020;6.598;2023-03-01T13:00:44;10.50;99.90
52187;DHT22;38161;53.020;6.598;2023-03-01T13:06:32;10.30;99.90
52187;DHT22;38161;53.020;6.598;2023-03-01T13:11:32;10.10;99.90
52187;DHT22;38161;53.020;6.598;2023-03-01T13:16:52;10.20;99.90
52187;DHT22;38161;53.020;6.598;2023-03-01T13:19:26;10.10;99.90
52187;DHT22;38161;53.020;6.598;2023-03-01T13:21:55;10.10;99.90
52187;DHT22;38161;53.020;6.598;2023-03-01T13:29:58;10.00;99.90
52187;DHT22;38161;53.020;6.598;2023-03-01T13:32:30;10.00;99.90
52187;DHT22;38161;53.020;6.598;2023-03-01T13:35:02;10.10;99.90
52187;DHT22;38161;53.020;6.598;2023-03-01T13:37:32;10.20;99.90
52187;DHT22;38161;53.020;6.598;2023-03-01T13:40:02;10.30;99.90
52187;DHT22;38161;53.020;6.598;2023-03-01T13:42:36;10.40;99.90
52187;DHT22;38161;53.020;6.598;2023-03-01T13:45:31;10.30;99.90
52187;DHT22;38161;53.020;6.598;2023-03-01T13:47:57;10.90;99.90
52187;DHT22;38161;53.020;6.598;2023-03-01T13:50:38;10.00;99.90
52187;DHT22;38161;53.020;6.598;2023-03-01T13:53:14;9.70;99.90
52187;DHT22;38161;53.020;6.598;2023-03-01T13:55:55;9.40;99.90
52187;DHT22;38161;53.020;6.598;2023-03-01T13:58:26;9.10;99.90
52187;DHT22;38161;53.020;6.598;2023-03-01T14:01:01;9.00;99.90
52187;DHT22;38161;53.020;6.598;2023-03-01T14:03:29;8.90;99.90
52187;DHT22;38161;53.020;6.598;2023-03-01T14:06:15;8.80;99.90
52187;DHT22;38161;53.020;6.598;2023-03-01T14:08:44;8.70;99.90
52187;DHT22;38161;53.020;6.598;2023-03-01T14:16:55;8.50;99.90
52187;DHT22;38161;53.020;6.598;2023-03-01T14:19:26;8.40;99.90
52187;DHT22;38161;53.020;6.598;2023-03-01T14:24:46;8.30;99.90
52187;DHT22;38161;53.020;6.598;2023-03-01T14:27:13;8.20;99.90
52187;DHT22;38161;53.020;6.598;2023-03-01T14:29:40;8.20;99.90
52187;DHT22;38161;53.020;6.598;2023-03-01T14:32:21;8.20;99.90
52187;DHT22;38161;53.020;6.598;2023-03-01T14:34:49;8.10;99.90
52187;DHT22;38161;53.020;6.598;2023-03-01T14:37:35;8.20;99.90
52187;DHT22;38161;53.020;6.598;2023-03-01T14:40:03;8.10;99.90
52187;DHT22;38161;53.020;6.598;2023-03-01T14:42:34;8.10;99.90
52187;DHT22;38161;53.020;6.598;2023-03-01T14:45:02;8.00;99.90
52187;DHT22;38161;53.020;6.598;2023-03-01T14:47:31;7.90;99.90
52187;DHT22;38161;53.020;6.598;2023-03-01T14:50:24;7.80;99.90
52187;DHT22;38161;53.020;6.598;2023-03-01T14:52:54;7.80;99.90
52187;DHT22;38161;53.020;6.598;2023-03-01T14:55:35;7.70;99.90
52187;DHT22;38161;53.020;6.598;2023-03-01T14:58:04;7.70;99.90
52187;DHT22;38161;53.020;6.598;2023-03-01T15:00:32;7.60;99.90
52187;DHT22;38161;53.020;6.598;2023-03-01T15:03:06;7.60;99.90
52187;DHT22;38161;53.020;6.598;2023-03-01T15:05:35;7.50;99.90
52187;DHT22;38161;53.020;6.598;2023-03-01T15:08:03;7.50;99.90
52187;DHT22;38161;53.020;6.598;2023-03-01T15:10:32;7.40;99.90
52187;DHT22;38161;53.020;6.598;2023-03-01T15:13:13;7.40;99.90
52187;DHT22;38161;53.020;6.598;2023-03-01T15:15:47;7.40;99.90
52187;DHT22;38161;53.020;6.598;2023-03-01T15:18:17;7.40;99.90
52187;DHT22;38161;53.020;6.598;2023-03-01T15:20:44;7.30;99.90
52187;DHT22;38161;53.020;6.598;2023-03-01T15:25:51;7.20;99.90
52187;DHT22;38161;53.020;6.598;2023-03-01T15:28:25;7.20;99.90
52187;DHT22;38161;53.020;6.598;2023-03-01T15:31:06;7.20;99.90
52187;DHT22;38161;53.020;6.598;2023-03-01T15:33:37;7.20;99.90
52187;DHT22;38161;53.020;6.598;2023-03-01T15:39:00;7.10;99.90
52187;DHT22;38161;53.020;6.598;2023-03-01T15:41:30;7.00;99.90
52187;DHT22;38161;53.020;6.598;2023-03-01T15:44:16;7.00;99.90
52187;DHT22;38161;53.020;6.598;2023-03-01T15:46:46;6.90;99.90
52187;DHT22;38161;53.020;6.598;2023-03-01T15:52:03;6.90;99.90
52187;DHT22;38161;53.020;6.598;2023-03-01T15:54:29;6.80;99.90
52187;DHT22;38161;53.020;6.598;2023-03-01T15:56:55;6.80;99.90
52187;DHT22;38161;53.020;6.598;2023-03-01T15:59:21;6.70;99.90
52187;DHT22;38161;53.020;6.598;2023-03-01T16:01:48;6.60;99.90
52187;DHT22;38161;53.020;6.598;2023-03-01T16:04:17;6.60;99.90
52187;DHT22;38161;53.020;6.598;2023-03-01T16:06:52;6.50;99.90
52187;DHT22;38161;53.020;6.598;2023-03-01T16:09:25;6.50;99.90
52187;DHT22;38161;53.020;6.598;2023-03-01T16:11:52;6.40;99.90
52187;DHT22;38161;53.020;6.598;2023-03-01T16:14:18;6.40;99.90
52187;DHT22;38161;53.020;6.598;2023-03-01T16:16:45;6.40;99.90
52187;DHT22;38161;53.020;6.598;2023-03-01T16:19:11;6.30;99.90
52187;DHT22;38161;53.020;6.598;2023-03-01T16:21:37;6.30;99.90
52187;DHT22;38161;53.020;6.598;2023-03-01T16:24:04;6.20;99.90
52187;DHT22;38161;53.020;6.598;2023-03-01T16:26:30;6.10;99.90
52187;DHT22;38161;53.020;6.598;2023-03-01T16:28:56;6.10;99.90
52187;DHT22;38161;53.020;6.598;2023-03-01T16:31:23;6.00;99.90
52187;DHT22;38161;53.020;6.598;2023-03-01T16:33:53;5.90;99.90
52187;DHT22;38161;53.020;6.598;2023-03-01T16:36:20;5.90;99.90
52187;DHT22;38161;53.020;6.598;2023-03-01T16:38:49;5.80;99.90
52187;DHT22;38161;53.020;6.598;2023-03-01T16:41:17;5.70;99.90
52187;DHT22;38161;53.020;6.598;2023-03-01T16:43:43;5.60;99.90
52187;DHT22;38161;53.020;6.598;2023-03-01T16:46:21;5.50;99.90
52187;DHT22;38161;53.020;6.598;2023-03-01T16:48:48;5.40;99.90
52187;DHT22;38161;53.020;6.598;2023-03-01T16:51:14;5.30;99.90
52187;DHT22;38161;53.020;6.598;2023-03-01T16:53:40;5.20;99.90
52187;DHT22;38161;53.020;6.598;2023-03-01T16:56:09;5.20;99.90
52187;DHT22;38161;53.020;6.598;2023-03-01T16:58:36;5.10;99.90
52187;DHT22;38161;53.020;6.598;2023-03-01T17:01:17;5.00;99.90
52187;DHT22;38161;53.020;6.598;2023-03-01T17:03:44;5.00;99.90
52187;DHT22;38161;53.020;6.598;2023-03-01T17:06:14;5.00;99.90
52187;DHT22;38161;53.020;6.598;2023-03-01T17:08:40;4.90;99.90
52187;DHT22;38161;53.020;6.598;2023-03-01T17:11:11;4.90;99.90
52187;DHT22;38161;53.020;6.598;2023-03-01T17:13:38;4.80;99.90
52187;DHT22;38161;53.020;6.598;2023-03-01T17:16:10;4.80;99.90
52187;DHT22;38161;53.020;6.598;2023-03-01T17:18:36;4.70;99.90
52187;DHT22;38161;53.020;6.598;2023-03-01T17:21:03;4.60;99.90
52187;DHT22;38161;53.020;6.598;2023-03-01T17:23:30;4.50;99.90
52187;DHT22;38161;53.020;6.598;2023-03-01T17:25:56;4.40;99.90
52187;DHT22;38161;53.020;6.598;2023-03-01T17:28:25;4.30;99.90
52187;DHT22;38161;53.020;6.598;2023-03-01T17:30:52;4.20;99.90
52187;DHT22;38161;53.020;6.598;2023-03-01T17:33:18;4.20;99.90
52187;DHT22;38161;53.020;6.598;2023-03-01T17:36:09;4.10;99.90
52187;DHT22;38161;53.020;6.598;2023-03-01T17:38:59;4.00;99.90
52187;DHT22;38161;53.020;6.598;2023-03-01T17:41:25;3.90;99.90
52187;DHT22;38161;53.020;6.598;2023-03-01T17:43:51;3.90;99.90